Time;durP1;ratioP1;P1;durP2;ratioP2;P2;SDS_P1;SDS_P2;PMS_P1;PMS_P2;Temp;Humidity;BMP_temperature;BMP_pressure;BME280_temperature;BME280_humidity;BME280_pressure;Samples;Min_cycle;Max_cycle;Signal;HPM_P1;HPM_P2
2023/08/14 00:02:22;;;;;;;7.90;7.10;;;;;;;;;;10203785;29;20117;-79
2023/08/14 00:07:22;;;;;;;8.25;7.38;;;;;;;;;;10186029;29;20047;-78
2023/08/14 00:12:22;;;;;;;8.10;7.30;;;;;;;;;;10135203;29;20480;-79
2023/08/14 00:17:23;;;;;;;7.33;6.63;;;;;;;;;;10130287;29;20142;-78
2023/08/14 00:22:23;;;;;;;8.10;7.40;;;;;;;;;;10143979;29;20060;-77
2023/08/14 00:27:25;;;;;;;10.40;8.20;;;;;;;;;;10143253;29;20496;-80
2023/08/14 00:32:25;;;;;;;10.03;8.00;;;;;;;;;;10141937;29;20412;-78
2023/08/14 00:37:38;;;;;;;7.90;7.20;;;;;;;;;;10146919;29;20119;-78
2023/08/14 00:42:42;;;;;;;8.52;7.63;;;;;;;;;;10145568;29;20599;-82
2023/08/14 00:47:44;;;;;;;8.25;7.45;;;;;;;;;;10142145;29;20067;-77
2023/08/14 00:52:46;;;;;;;10.00;7.43;;;;;;;;;;10131184;29;20150;-78
2023/08/14 00:57:46;;;;;;;;;;;;;;;;;;10117489;29;20575;-77
2023/08/14 01:02:48;;;;;;;9.48;8.18;;;;;;;;;;10138296;29;19919;-77
2023/08/14 01:07:48;;;;;;;8.00;7.20;;;;;;;;;;10127707;29;20648;-77
2023/08/14 01:12:48;;;;;;;10.40;8.00;;;;;;;;;;10129858;29;20052;-78
2023/08/14 01:17:52;;;;;;;10.80;7.40;;;;;;;;;;10138040;29;20055;-77
2023/08/14 01:22:53;;;;;;;8.75;7.82;;;;;;;;;;10123688;29;20062;-78
2023/08/14 01:27:53;;;;;;;8.68;7.75;;;;;;;;;;10142854;29;20054;-79
2023/08/14 01:32:54;;;;;;;8.02;7.22;;;;;;;;;;10156836;29;20072;-79
2023/08/14 01:37:59;;;;;;;7.78;6.97;;;;;;;;;;10123328;29;20052;-78
2023/08/14 01:43:04;;;;;;;7.60;6.85;;;;;;;;;;10143981;29;20036;-80
2023/08/14 01:48:06;;;;;;;7.60;6.90;;;;;;;;;;10150153;29;20051;-79
2023/08/14 01:53:07;;;;;;;7.90;7.10;;;;;;;;;;10128709;29;20080;-79
2023/08/14 01:58:08;;;;;;;8.63;7.63;;;;;;;;;;10141173;29;20040;-78
2023/08/14 02:03:09;;;;;;;7.55;6.72;;;;;;;;;;10154429;23;20047;-79
2023/08/14 02:08:09;;;;;;;8.77;7.73;;;;;;;;;;10189694;23;20056;-77
2023/08/14 02:13:09;;;;;;;9.67;8.13;;;;;;;;;;10094076;29;20053;-78
2023/08/14 02:18:10;;;;;;;11.75;9.95;;;;;;;;;;10103007;29;20404;-78
2023/08/14 02:23:12;;;;;;;10.80;9.67;;;;;;;;;;10081243;29;20109;-80
2023/08/14 02:28:13;;;;;;;13.43;10.70;;;;;;;;;;10083649;29;20305;-78
2023/08/14 02:33:13;;;;;;;11.77;10.57;;;;;;;;;;10096868;29;20053;-80
2023/08/14 02:38:14;;;;;;;12.27;10.75;;;;;;;;;;10069522;29;20057;-79
2023/08/14 02:43:17;;;;;;;16.33;10.45;;;;;;;;;;10091156;29;20628;-77
2023/08/14 02:48:18;;;;;;;15.45;12.23;;;;;;;;;;10092988;29;20051;-76
2023/08/14 02:53:18;;;;;;;16.80;13.00;;;;;;;;;;10075894;29;20518;-76
2023/08/14 02:58:19;;;;;;;15.90;11.77;;;;;;;;;;10091988;29;20052;-77
2023/08/14 03:03:19;;;;;;;17.77;13.38;;;;;;;;;;10095622;29;20950;-77
2023/08/14 03:08:20;;;;;;;15.80;12.90;;;;;;;;;;10094208;29;20079;-77
2023/08/14 03:13:20;;;;;;;11.65;10.45;;;;;;;;;;10079619;29;20373;-78
2023/08/14 03:18:21;;;;;;;11.57;10.35;;;;;;;;;;10094819;29;20073;-84
2023/08/14 03:23:21;;;;;;;13.27;11.03;;;;;;;;;;10096497;29;20100;-78
2023/08/14 03:28:21;;;;;;;13.80;10.33;;;;;;;;;;10095743;29;20305;-78
2023/08/14 03:33:22;;;;;;;14.43;10.30;;;;;;;;;;10080091;29;20316;-78
2023/08/14 03:38:22;;;;;;;10.80;9.70;;;;;;;;;;10074258;29;20384;-78
2023/08/14 03:43:23;;;;;;;13.27;10.23;;;;;;;;;;10075844;29;20797;-80
2023/08/14 03:48:23;;;;;;;12.27;10.77;;;;;;;;;;10071101;29;20044;-79
2023/08/14 03:53:24;;;;;;;12.63;10.17;;;;;;;;;;10091772;29;20060;-79
2023/08/14 03:58:24;;;;;;;14.77;10.20;;;;;;;;;;10091198;29;20044;-80
2023/08/14 04:03:24;;;;;;;11.82;9.82;;;;;;;;;;10100899;29;20288;-80
2023/08/14 04:08:25;;;;;;;10.60;9.50;;;;;;;;;;10097608;29;20151;-81
2023/08/14 04:13:26;;;;;;;13.40;10.73;;;;;;;;;;10066272;29;20055;-79
2023/08/14 04:18:27;;;;;;;12.30;11.00;;;;;;;;;;10094961;29;20110;-81
2023/08/14 04:23:28;;;;;;;13.10;9.90;;;;;;;;;;10114381;29;20521;-79
2023/08/14 04:28:29;;;;;;;12.60;11.30;;;;;;;;;;10067493;29;20060;-81
2023/08/14 04:33:30;;;;;;;12.30;11.00;;;;;;;;;;10090959;29;20541;-83
2023/08/14 04:38:30;;;;;;;12.57;10.23;;;;;;;;;;10099559;29;20046;-80
2023/08/14 04:43:31;;;;;;;17.48;12.82;;;;;;;;;;10072855;29;20057;-79
2023/08/14 04:48:32;;;;;;;16.23;11.55;;;;;;;;;;10095899;29;20048;-79
2023/08/14 04:53:32;;;;;;;13.77;12.30;;;;;;;;;;10072909;29;20140;-78
2023/08/14 04:58:33;;;;;;;11.75;10.45;;;;;;;;;;10097992;29;20388;-83
2023/08/14 05:03:35;;;;;;;14.30;11.00;;;;;;;;;;10082644;29;20075;-88
2023/08/14 05:08:36;;;;;;;12.63;10.90;;;;;;;;;;10077084;29;20405;-84
2023/08/14 05:13:36;;;;;;;12.32;10.65;;;;;;;;;;10078571;29;20049;-81
2023/08/14 05:18:36;;;;;;;11.13;9.57;;;;;;;;;;10096587;29;20053;-84
2023/08/14 05:23:37;;;;;;;11.83;9.97;;;;;;;;;;10105740;29;20552;-84
2023/08/14 05:28:37;;;;;;;12.97;10.93;;;;;;;;;;10106695;29;20134;-82
2023/08/14 05:33:37;;;;;;;12.77;10.60;;;;;;;;;;10108526;29;20748;-84
2023/08/14 05:38:38;;;;;;;11.50;10.10;;;;;;;;;;10103524;29;20044;-84
2023/08/14 05:43:38;;;;;;;12.83;10.73;;;;;;;;;;10117704;29;20104;-86
2023/08/14 05:48:38;;;;;;;13.13;10.37;;;;;;;;;;10126519;29;20044;-85
2023/08/14 05:53:39;;;;;;;12.40;10.50;;;;;;;;;;10111098;29;20048;-87
2023/08/14 05:58:39;;;;;;;12.03;10.47;;;;;;;;;;10095761;29;20281;-87
2023/08/14 06:03:40;;;;;;;11.23;10.07;;;;;;;;;;10112634;29;20300;-88
2023/08/14 06:08:40;;;;;;;10.57;9.48;;;;;;;;;;10124364;29;20135;-88
2023/08/14 06:13:40;;;;;;;13.73;9.40;;;;;;;;;;10174839;29;20040;-90
2023/08/14 06:18:41;;;;;;;10.73;9.63;;;;;;;;;;10148678;29;20059;-91
2023/08/14 06:23:41;;;;;;;10.80;9.70;;;;;;;;;;10178607;29;20601;-87
2023/08/14 06:28:42;;;;;;;10.68;9.32;;;;;;;;;;10178843;28;20043;-87
2023/08/14 06:33:44;;;;;;;11.53;9.50;;;;;;;;;;10173499;29;20063;-87
2023/08/14 06:38:44;;;;;;;;;;;;;;;;;;10166445;29;20295;-86
2023/08/14 06:43:45;;;;;;;12.13;10.00;;;;;;;;;;10165367;29;19919;-83
2023/08/14 06:48:45;;;;;;;12.97;10.70;;;;;;;;;;10164345;29;20051;-83
2023/08/14 06:53:46;;;;;;;12.45;9.95;;;;;;;;;;10166404;29;20307;-86
2023/08/14 06:58:46;;;;;;;11.23;9.60;;;;;;;;;;10180368;29;20084;-85
2023/08/14 07:03:46;;;;;;;11.73;9.37;;;;;;;;;;10176264;29;20084;-85
2023/08/14 07:08:46;;;;;;;9.17;8.27;;;;;;;;;;10188447;29;20050;-81
2023/08/14 07:13:47;;;;;;;11.73;10.10;;;;;;;;;;10186245;29;20062;-83
2023/08/14 07:18:47;;;;;;;11.90;9.53;;;;;;;;;;10178866;29;20056;-83
2023/08/14 07:23:48;;;;;;;13.38;10.77;;;;;;;;;;10212241;28;20346;-84
2023/08/14 07:28:48;;;;;;;12.38;11.18;;;;;;;;;;10200524;29;20043;-82
2023/08/14 07:33:49;;;;;;;13.93;11.70;;;;;;;;;;10189027;29;20152;-83
2023/08/14 07:38:49;;;;;;;12.83;11.53;;;;;;;;;;10185175;29;20212;-79
2023/08/14 07:43:50;;;;;;;15.43;10.97;;;;;;;;;;10155745;29;20505;-83
2023/08/14 07:48:51;;;;;;;19.93;15.90;;;;;;;;;;10190788;29;20043;-76
2023/08/14 07:53:52;;;;;;;10.73;9.43;;;;;;;;;;10173338;29;20056;-77
2023/08/14 07:58:53;;;;;;;12.97;10.93;;;;;;;;;;10171183;29;20083;-75
2023/08/14 08:03:53;;;;;;;9.73;8.73;;;;;;;;;;10188650;29;20043;-76
2023/08/14 08:08:54;;;;;;;9.57;7.75;;;;;;;;;;10196742;29;20095;-84
2023/08/14 08:13:54;;;;;;;9.80;7.60;;;;;;;;;;10165667;29;20040;-80
2023/08/14 08:18:54;;;;;;;9.17;8.27;;;;;;;;;;10170736;29;20130;-79
2023/08/14 08:23:55;;;;;;;11.50;9.30;;;;;;;;;;10143141;29;20554;-80
2023/08/14 08:28:56;;;;;;;10.80;9.20;;;;;;;;;;10182059;29;20048;-80
2023/08/14 08:33:59;;;;;;;10.70;9.37;;;;;;;;;;10203780;23;20103;-80
2023/08/14 08:39:03;;;;;;;10.63;8.75;;;;;;;;;;10317795;23;20323;-76
2023/08/14 08:44:03;;;;;;;9.13;8.25;;;;;;;;;;10224822;23;20067;-79
2023/08/14 08:49:04;;;;;;;9.18;8.27;;;;;;;;;;10339691;23;20149;-80
2023/08/14 08:54:05;;;;;;;8.55;7.70;;;;;;;;;;10195858;29;20047;-76
2023/08/14 08:59:05;;;;;;;10.73;8.05;;;;;;;;;;10196623;28;20451;-81
2023/08/14 09:04:05;;;;;;;10.18;7.35;;;;;;;;;;10210004;29;20111;-83
2023/08/14 09:09:06;;;;;;;8.33;7.60;;;;;;;;;;10205321;29;20052;-83
2023/08/14 09:14:06;;;;;;;10.10;7.57;;;;;;;;;;10168588;29;20047;-85
2023/08/14 09:19:07;;;;;;;8.27;7.20;;;;;;;;;;10146381;29;21134;-76
2023/08/14 09:24:08;;;;;;;8.53;6.93;;;;;;;;;;10150980;29;20049;-76
2023/08/14 09:29:09;;;;;;;11.77;8.40;;;;;;;;;;10164262;29;20308;-81
2023/08/14 09:34:15;;;;;;;9.07;7.72;;;;;;;;;;10155800;29;20297;-88
2023/08/14 09:39:15;;;;;;;7.85;7.15;;;;;;;;;;10147896;29;20139;-84
2023/08/14 09:44:19;;;;;;;8.07;7.30;;;;;;;;;;10143738;29;20047;-82
2023/08/14 09:49:20;;;;;;;9.40;7.57;;;;;;;;;;10152490;29;20088;-82
2023/08/14 09:54:28;;;;;;;6.90;6.30;;;;;;;;;;10158733;29;20131;-81
2023/08/14 09:59:29;;;;;;;9.30;6.15;;;;;;;;;;10156216;29;20063;-79
2023/08/14 10:04:30;;;;;;;7.10;6.32;;;;;;;;;;10163722;29;20036;-82
2023/08/14 10:09:32;;;;;;;7.68;6.90;;;;;;;;;;10154208;29;20060;-81
2023/08/14 10:14:33;;;;;;;6.10;5.50;;;;;;;;;;10158719;29;20052;-83
2023/08/14 10:19:34;;;;;;;6.40;5.72;;;;;;;;;;10160761;29;20756;-83
2023/08/14 10:24:36;;;;;;;8.27;6.00;;;;;;;;;;10149528;29;20045;-84
2023/08/14 10:29:37;;;;;;;6.63;5.70;;;;;;;;;;10144142;29;20094;-82
2023/08/14 10:34:38;;;;;;;7.00;5.70;;;;;;;;;;10153367;29;20042;-80
2023/08/14 10:39:38;;;;;;;7.03;6.37;;;;;;;;;;10182973;29;20047;-82
2023/08/14 10:44:43;;;;;;;5.60;5.10;;;;;;;;;;10172683;29;20055;-81
2023/08/14 10:49:49;;;;;;;6.50;5.35;;;;;;;;;;10166278;29;20048;-85
2023/08/14 10:54:51;;;;;;;6.18;5.57;;;;;;;;;;10153816;29;20129;-83
2023/08/14 10:59:55;;;;;;;6.07;5.53;;;;;;;;;;10159087;29;20468;-80
2023/08/14 11:05:00;;;;;;;6.95;5.43;;;;;;;;;;10148096;29;20052;-76
2023/08/14 11:10:04;;;;;;;6.20;5.57;;;;;;;;;;10146126;29;20040;-83
2023/08/14 11:15:05;;;;;;;13.25;10.07;;;;;;;;;;10162021;29;20159;-82
2023/08/14 11:20:09;;;;;;;6.50;5.23;;;;;;;;;;10148365;29;20127;-80
2023/08/14 11:25:12;;;;;;;5.10;4.50;;;;;;;;;;10150713;29;21401;-84
2023/08/14 11:30:12;;;;;;;5.55;5.03;;;;;;;;;;10180411;29;20069;-81
2023/08/14 11:35:13;;;;;;;5.60;5.10;;;;;;;;;;10158810;29;20044;-83
2023/08/14 11:40:15;;;;;;;4.60;4.20;;;;;;;;;;10171225;29;20048;-80
2023/08/14 11:45:16;;;;;;;4.18;3.75;;;;;;;;;;10172400;29;20067;-84
2023/08/14 11:50:17;;;;;;;4.27;3.60;;;;;;;;;;10145655;29;20048;-83
2023/08/14 11:55:17;;;;;;;;;;;;;;;;;;10155325;29;20047;-84
2023/08/14 12:00:18;;;;;;;4.53;4.13;;;;;;;;;;10157055;29;19926;-84
2023/08/14 12:05:19;;;;;;;4.70;4.10;;;;;;;;;;10182260;29;20049;-84
2023/08/14 12:10:19;;;;;;;5.32;4.15;;;;;;;;;;10158860;29;20781;-85
2023/08/14 12:15:21;;;;;;;4.33;3.80;;;;;;;;;;10160058;29;20048;-86
2023/08/14 12:20:22;;;;;;;4.30;3.90;;;;;;;;;;10158704;29;20137;-85
2023/08/14 12:25:23;;;;;;;4.65;3.80;;;;;;;;;;10155418;29;20844;-83
2023/08/14 12:30:23;;;;;;;4.90;4.20;;;;;;;;;;10147865;29;20059;-83
2023/08/14 12:35:23;;;;;;;3.73;3.43;;;;;;;;;;10143080;29;20576;-80
2023/08/14 12:40:24;;;;;;;5.30;3.50;;;;;;;;;;10130949;29;20422;-79
2023/08/14 12:45:24;;;;;;;4.13;3.30;;;;;;;;;;10141799;29;20048;-79
2023/08/14 12:50:24;;;;;;;3.50;3.20;;;;;;;;;;10140184;29;20474;-81
2023/08/14 12:55:25;;;;;;;4.20;3.80;;;;;;;;;;10159834;29;20076;-80
2023/08/14 13:00:25;;;;;;;3.80;3.20;;;;;;;;;;10137161;29;20056;-77
2023/08/14 13:05:25;;;;;;;4.57;3.17;;;;;;;;;;10152470;29;20048;-83
2023/08/14 13:10:26;;;;;;;3.65;3.35;;;;;;;;;;10142003;29;20059;-77
2023/08/14 13:15:27;;;;;;;3.33;3.00;;;;;;;;;;10122250;29;20055;-79
2023/08/14 13:20:27;;;;;;;3.70;3.30;;;;;;;;;;10135193;29;20068;-79
2023/08/14 13:25:28;;;;;;;3.77;3.20;;;;;;;;;;10138553;29;20044;-78
2023/08/14 13:30:28;;;;;;;5.55;3.47;;;;;;;;;;10132935;29;20056;-77
2023/08/14 13:35:28;;;;;;;4.87;3.53;;;;;;;;;;10121560;29;20044;-77
2023/08/14 13:40:29;;;;;;;3.40;3.10;;;;;;;;;;10124558;29;20463;-78
2023/08/14 13:45:32;;;;;;;;;;;;;;;;;;10126144;29;20040;-76
2023/08/14 13:50:32;;;;;;;5.05;3.40;;;;;;;;;;10120364;29;19987;-78
2023/08/14 13:55:33;;;;;;;5.00;3.93;;;;;;;;;;10137180;29;20066;-77
2023/08/14 14:00:33;;;;;;;;;;;;;;;;;;10137758;29;20166;-77
2023/08/14 14:05:34;;;;;;;4.43;4.03;;;;;;;;;;10142651;29;20001;-77
2023/08/14 14:10:34;;;;;;;3.73;3.27;;;;;;;;;;10136679;29;20619;-78
2023/08/14 14:15:34;;;;;;;5.07;3.20;;;;;;;;;;10142099;29;20056;-78
2023/08/14 14:20:35;;;;;;;;;;;;;;;;;;10154995;29;20841;-77
2023/08/14 14:25:35;;;;;;;3.78;3.33;;;;;;;;;;10137990;29;19966;-76
2023/08/14 14:30:35;;;;;;;4.33;3.17;;;;;;;;;;10127968;29;20082;-77
2023/08/14 14:35:35;;;;;;;3.77;3.43;;;;;;;;;;10139732;29;20425;-78
2023/08/14 14:40:36;;;;;;;3.77;3.13;;;;;;;;;;10139974;29;20062;-78
2023/08/14 14:45:36;;;;;;;4.70;3.33;;;;;;;;;;10131366;29;20119;-77
2023/08/14 14:50:37;;;;;;;5.30;3.47;;;;;;;;;;10139046;29;20123;-77
2023/08/14 14:55:37;;;;;;;4.63;3.40;;;;;;;;;;10148175;29;20524;-77
2023/08/14 15:00:38;;;;;;;3.53;3.23;;;;;;;;;;10139570;29;20115;-76
2023/08/14 15:05:39;;;;;;;3.83;3.47;;;;;;;;;;10139713;29;20052;-78
2023/08/14 15:10:39;;;;;;;4.30;3.90;;;;;;;;;;10138277;29;20088;-79
2023/08/14 15:15:39;;;;;;;5.00;4.20;;;;;;;;;;10144309;29;20111;-78
2023/08/14 15:20:40;;;;;;;5.00;4.50;;;;;;;;;;10130060;29;20498;-77
2023/08/14 15:25:40;;;;;;;5.67;3.70;;;;;;;;;;10134027;29;20044;-75
2023/08/14 15:30:41;;;;;;;4.63;3.63;;;;;;;;;;10124308;29;20060;-77
2023/08/14 15:35:42;;;;;;;4.57;4.18;;;;;;;;;;10129883;29;20127;-79
2023/08/14 15:40:46;;;;;;;4.70;4.30;;;;;;;;;;10163595;29;20047;-83
2023/08/14 15:45:47;;;;;;;3.88;3.53;;;;;;;;;;10137014;29;20071;-84
2023/08/14 15:50:49;;;;;;;4.45;3.80;;;;;;;;;;10150567;29;20092;-82
2023/08/14 15:55:50;;;;;;;4.28;3.60;;;;;;;;;;10133988;29;20131;-84
2023/08/14 16:00:51;;;;;;;4.33;3.63;;;;;;;;;;10146514;29;20048;-83
2023/08/14 16:05:55;;;;;;;4.95;3.72;;;;;;;;;;10145062;29;20192;-84
2023/08/14 16:10:55;;;;;;;3.75;3.45;;;;;;;;;;10132810;29;20103;-80
2023/08/14 16:15:58;;;;;;;3.77;3.37;;;;;;;;;;10129147;29;20103;-84
2023/08/14 16:20:58;;;;;;;3.80;3.50;;;;;;;;;;10138291;29;20545;-83
2023/08/14 16:25:59;;;;;;;4.80;3.80;;;;;;;;;;10137049;29;20049;-80
2023/08/14 16:31:00;;;;;;;4.53;4.00;;;;;;;;;;10132656;29;20418;-81
2023/08/14 16:36:00;;;;;;;4.22;3.85;;;;;;;;;;10139495;29;20111;-80
2023/08/14 16:41:02;;;;;;;4.40;4.00;;;;;;;;;;10149297;29;20081;-79
2023/08/14 16:46:04;;;;;;;4.82;3.90;;;;;;;;;;10157224;28;21155;-81
2023/08/14 16:51:05;;;;;;;;;;;;;;;;;;10229362;28;21129;-83
2023/08/14 16:56:05;;;;;;;3.92;3.33;;;;;;;;;;10234482;28;19922;-82
2023/08/14 17:01:05;;;;;;;4.53;4.13;;;;;;;;;;10231103;28;20036;-83
2023/08/14 17:06:06;;;;;;;4.43;3.90;;;;;;;;;;10240806;28;20052;-82
2023/08/14 17:11:06;;;;;;;4.17;3.30;;;;;;;;;;10220642;28;20060;-83
2023/08/14 17:16:10;;;;;;;4.10;3.80;;;;;;;;;;10235005;28;20059;-81
2023/08/14 17:21:10;;;;;;;5.38;3.67;;;;;;;;;;10222930;28;20043;-80
2023/08/14 17:26:10;;;;;;;3.87;3.47;;;;;;;;;;10210524;28;20118;-81
2023/08/14 17:31:11;;;;;;;4.27;3.87;;;;;;;;;;10208122;28;20164;-83
2023/08/14 17:36:11;;;;;;;4.53;4.03;;;;;;;;;;10252597;28;20035;-84
2023/08/14 17:41:12;;;;;;;3.87;3.57;;;;;;;;;;10272553;28;20072;-86
2023/08/14 17:46:12;;;;;;;3.77;3.47;;;;;;;;;;10261185;28;20038;-88
2023/08/14 17:51:12;;;;;;;4.37;3.97;;;;;;;;;;10260279;28;20119;-84
2023/08/14 17:56:14;;;;;;;4.38;3.72;;;;;;;;;;10262251;28;20332;-88
2023/08/14 18:01:15;;;;;;;5.53;4.32;;;;;;;;;;10266397;28;20119;-88
2023/08/14 18:06:15;;;;;;;4.80;4.33;;;;;;;;;;10261054;28;20043;-88
2023/08/14 18:11:21;;;;;;;4.47;3.83;;;;;;;;;;10255448;28;20094;-86
2023/08/14 18:16:22;;;;;;;5.38;4.88;;;;;;;;;;10247117;28;20119;-88
2023/08/14 18:21:23;;;;;;;4.93;4.40;;;;;;;;;;10237428;28;20048;-85
2023/08/14 18:26:23;;;;;;;5.60;5.00;;;;;;;;;;10246808;28;20067;-87
2023/08/14 18:31:24;;;;;;;7.50;5.27;;;;;;;;;;10238972;28;20060;-88
2023/08/14 18:36:24;;;;;;;7.22;5.90;;;;;;;;;;10224725;28;20794;-85
2023/08/14 18:41:24;;;;;;;8.53;6.40;;;;;;;;;;10231888;28;20044;-87
2023/08/14 18:46:25;;;;;;;7.37;6.57;;;;;;;;;;10221395;28;20051;-86
2023/08/14 18:51:26;;;;;;;7.50;6.80;;;;;;;;;;10232725;28;20175;-81
2023/08/14 18:56:26;;;;;;;7.30;6.60;;;;;;;;;;10243382;28;20035;-83
2023/08/14 19:01:27;;;;;;;7.60;6.80;;;;;;;;;;10259045;28;20043;-83
2023/08/14 19:06:29;;;;;;;9.37;6.93;;;;;;;;;;10226804;28;20225;-84
2023/08/14 19:11:29;;;;;;;8.98;6.65;;;;;;;;;;10235692;28;20060;-83
2023/08/14 19:16:30;;;;;;;8.87;7.10;;;;;;;;;;10238316;28;20031;-86
2023/08/14 19:21:30;;;;;;;8.77;7.13;;;;;;;;;;10246069;28;20120;-88
2023/08/14 19:26:30;;;;;;;11.60;10.27;;;;;;;;;;10238459;28;20198;-88
2023/08/14 19:31:31;;;;;;;10.00;8.43;;;;;;;;;;10240203;28;20050;-86
2023/08/14 19:36:31;;;;;;;10.07;8.10;;;;;;;;;;10223246;28;20051;-85
2023/08/14 19:41:32;;;;;;;8.93;8.02;;;;;;;;;;10224714;28;20366;-84
2023/08/14 19:46:32;;;;;;;8.17;7.27;;;;;;;;;;10233173;28;20147;-86
2023/08/14 19:51:33;;;;;;;10.23;8.48;;;;;;;;;;10252873;28;20327;-84
2023/08/14 19:56:33;;;;;;;8.20;7.50;;;;;;;;;;10245372;28;20107;-84
2023/08/14 20:01:33;;;;;;;8.23;7.43;;;;;;;;;;10240555;28;20051;-84
2023/08/14 20:06:35;;;;;;;8.32;7.50;;;;;;;;;;10232048;28;20294;-85
2023/08/14 20:11:35;;;;;;;9.52;8.57;;;;;;;;;;10235266;28;20071;-86
2023/08/14 20:16:36;;;;;;;9.85;8.88;;;;;;;;;;10240335;28;20163;-84
2023/08/14 20:21:36;;;;;;;8.93;8.10;;;;;;;;;;10232945;28;20055;-86
2023/08/14 20:26:36;;;;;;;9.88;8.88;;;;;;;;;;10205563;28;20323;-83
2023/08/14 20:31:37;;;;;;;8.82;7.72;;;;;;;;;;10223430;28;20134;-86
2023/08/14 20:36:37;;;;;;;8.93;8.13;;;;;;;;;;10244334;28;20142;-85
2023/08/14 20:41:38;;;;;;;10.85;9.75;;;;;;;;;;10250893;28;20022;-85
2023/08/14 20:46:39;;;;;;;9.60;8.70;;;;;;;;;;10249316;28;20047;-86
2023/08/14 20:51:40;;;;;;;9.98;8.98;;;;;;;;;;10248908;28;20059;-85
2023/08/14 20:56:40;;;;;;;10.90;9.80;;;;;;;;;;10249328;28;20123;-85
2023/08/14 21:01:40;;;;;;;10.23;9.23;;;;;;;;;;10245568;28;20051;-86
2023/08/14 21:06:41;;;;;;;9.93;9.03;;;;;;;;;;10245075;28;20058;-84
2023/08/14 21:11:44;;;;;;;9.63;8.67;;;;;;;;;;10615548;23;20087;-84
2023/08/14 21:16:55;;;;;;;10.25;9.25;;;;;;;;;;10201775;28;20304;-84
2023/08/14 21:21:58;;;;;;;10.50;8.70;;;;;;;;;;10195014;29;20040;-87
2023/08/14 21:26:58;;;;;;;12.63;9.30;;;;;;;;;;10197758;28;20047;-84
2023/08/14 21:31:59;;;;;;;9.90;8.77;;;;;;;;;;10417465;23;20313;-85
2023/08/14 21:36:59;;;;;;;10.18;9.10;;;;;;;;;;10187051;28;20044;-82
2023/08/14 21:42:00;;;;;;;10.80;9.77;;;;;;;;;;10176936;28;20040;-84
2023/08/14 21:47:00;;;;;;;11.63;9.40;;;;;;;;;;10187464;29;20024;-84
2023/08/14 21:52:00;;;;;;;9.80;8.80;;;;;;;;;;10179825;29;20093;-84
2023/08/14 21:57:01;;;;;;;9.37;8.37;;;;;;;;;;10364962;23;20059;-85
2023/08/14 22:02:01;;;;;;;10.00;9.00;;;;;;;;;;10225096;28;20541;-83
2023/08/14 22:07:01;;;;;;;10.73;9.70;;;;;;;;;;10522428;23;20135;-87
2023/08/14 22:12:02;;;;;;;9.00;8.20;;;;;;;;;;10208074;28;20067;-84
2023/08/14 22:17:02;;;;;;;12.48;9.27;;;;;;;;;;10193399;28;20304;-86
2023/08/14 22:22:03;;;;;;;11.40;10.20;;;;;;;;;;10209818;29;20043;-84
2023/08/14 22:27:04;;;;;;;11.40;9.77;;;;;;;;;;10219257;29;20294;-83
2023/08/14 22:32:04;;;;;;;10.52;9.45;;;;;;;;;;10204411;29;21158;-86
2023/08/14 22:37:04;;;;;;;11.90;9.25;;;;;;;;;;10195737;28;20063;-86
2023/08/14 22:42:05;;;;;;;9.63;8.73;;;;;;;;;;10195053;29;20044;-85
2023/08/14 22:47:07;;;;;;;11.45;8.88;;;;;;;;;;10205632;29;20679;-86
2023/08/14 22:52:07;;;;;;;10.13;8.60;;;;;;;;;;10218294;29;20083;-84
2023/08/14 22:57:10;;;;;;;10.40;9.40;;;;;;;;;;10224572;28;20319;-84
2023/08/14 23:02:10;;;;;;;10.98;9.85;;;;;;;;;;10396670;23;20059;-84
2023/08/14 23:07:11;;;;;;;11.20;10.07;;;;;;;;;;10191333;29;20043;-85
2023/08/14 23:12:11;;;;;;;10.33;9.13;;;;;;;;;;10162610;29;20328;-86
2023/08/14 23:17:11;;;;;;;11.20;9.40;;;;;;;;;;10145015;29;20052;-85
2023/08/14 23:22:12;;;;;;;10.43;9.43;;;;;;;;;;10156926;28;20100;-84
2023/08/14 23:27:12;;;;;;;10.33;9.33;;;;;;;;;;10142212;29;20313;-85
2023/08/14 23:32:12;;;;;;;10.33;9.13;;;;;;;;;;10158694;29;20044;-84
2023/08/14 23:37:13;;;;;;;10.53;9.20;;;;;;;;;;10204293;29;20063;-84
2023/08/14 23:42:13;;;;;;;11.20;8.57;;;;;;;;;;10178362;29;20054;-85
2023/08/14 23:47:13;;;;;;;12.23;10.30;;;;;;;;;;10160279;29;20052;-86
2023/08/14 23:52:14;;;;;;;10.48;9.55;;;;;;;;;;10153031;29;20320;-87
2023/08/14 23:57:14;;;;;;;14.37;10.70;;;;;;;;;;10150474;29;20069;-86
